Time;durP1;ratioP1;P1;durP2;ratioP2;P2;SDS_P1;SDS_P2;PMS_P1;PMS_P2;Temp;Humidity;BMP_temperature;BMP_pressure;BME280_temperature;BME280_humidity;BME280_pressure;Samples;Min_cycle;Max_cycle;Signal;HPM_P1;HPM_P2
2022/01/15 00:00:39;;;;;;;83.75;48.85;;;4.10;99.90;;;;;;4992786;28;20030;-77
2022/01/15 00:03:10;;;;;;;56.78;35.95;;;4.00;99.90;;;;;;4992841;28;20030;-77
2022/01/15 00:05:37;;;;;;;53.70;31.85;;;4.10;99.90;;;;;;4992920;28;20031;-77
2022/01/15 00:08:04;;;;;;;43.97;28.42;;;4.10;99.90;;;;;;4992667;28;20037;-76
2022/01/15 00:10:30;;;;;;;39.70;24.67;;;4.20;99.90;;;;;;4992837;28;20027;-77
2022/01/15 00:12:57;;;;;;;41.80;25.85;;;4.30;99.90;;;;;;4990943;28;20110;-78
2022/01/15 00:15:30;;;;;;;42.22;25.38;;;4.30;99.90;;;;;;4992048;28;20039;-76
2022/01/15 00:20:23;;;;;;;25.77;11.93;;;4.60;99.90;;;;;;4992607;28;20041;-78
2022/01/15 00:22:51;;;;;;;18.17;9.48;;;4.80;99.90;;;;;;4992371;28;20113;-75
2022/01/15 00:25:20;;;;;;;18.83;9.30;;;5.20;99.90;;;;;;4992621;28;20057;-76
2022/01/15 00:27:46;;;;;;;20.13;10.52;;;5.20;99.90;;;;;;4992176;28;20073;-78
2022/01/15 00:30:14;;;;;;;19.15;9.25;;;5.30;99.90;;;;;;4958831;28;20029;-75
2022/01/15 00:32:40;;;;;;;22.63;10.48;;;5.30;99.90;;;;;;4992491;28;20478;-77
2022/01/15 00:35:08;;;;;;;19.52;10.80;;;5.20;99.90;;;;;;4992496;28;20385;-78
2022/01/15 00:37:34;;;;;;;19.50;10.68;;;5.10;99.90;;;;;;4992162;28;20030;-75
2022/01/15 00:40:04;;;;;;;20.27;11.07;;;4.90;99.90;;;;;;4992646;28;20376;-76
2022/01/15 00:42:31;;;;;;;18.83;9.98;;;4.80;99.90;;;;;;4992299;28;20132;-73
2022/01/15 00:44:58;;;;;;;23.48;12.45;;;4.70;99.90;;;;;;4992134;28;20102;-76
2022/01/15 00:47:28;;;;;;;21.48;12.50;;;4.60;99.90;;;;;;4992435;28;20022;-75
2022/01/15 00:49:54;;;;;;;23.50;11.55;;;4.60;99.90;;;;;;4991929;28;20022;-78
2022/01/15 00:52:20;;;;;;;23.73;12.90;;;4.50;99.90;;;;;;4991954;28;20072;-78
2022/01/15 00:54:46;;;;;;;24.80;14.38;;;4.50;99.90;;;;;;4991629;28;20034;-77
2022/01/15 00:57:12;;;;;;;26.00;14.27;;;4.50;99.90;;;;;;4991739;28;20033;-75
2022/01/15 00:59:38;;;;;;;20.48;11.90;;;4.50;99.90;;;;;;4993541;28;20026;-77
2022/01/15 01:02:03;;;;;;;21.00;11.50;;;4.50;99.90;;;;;;4978774;28;20104;-77
2022/01/15 01:04:29;;;;;;;22.88;12.48;;;4.50;99.90;;;;;;4978959;28;20531;-75
2022/01/15 01:06:55;;;;;;;20.63;10.57;;;4.50;99.90;;;;;;4996246;28;20023;-76
2022/01/15 01:09:24;;;;;;;21.52;11.85;;;4.50;99.90;;;;;;4996082;28;20466;-75
2022/01/15 01:11:58;;;;;;;21.83;9.85;;;4.40;99.90;;;;;;4995912;28;20027;-77
2022/01/15 01:22:55;;;;;;;21.13;9.70;;;4.30;99.90;;;;;;4935302;28;20043;-75
2022/01/15 01:25:23;;;;;;;22.88;11.25;;;4.30;99.90;;;;;;4919360;29;20149;-77
2022/01/15 01:27:53;;;;;;;18.25;9.45;;;4.30;99.90;;;;;;4918937;29;20039;-76
2022/01/15 01:30:27;;;;;;;22.30;11.23;;;4.20;99.90;;;;;;4935101;29;20038;-76
2022/01/15 01:35:46;;;;;;;23.90;12.57;;;4.20;99.90;;;;;;4878969;29;20053;-76
2022/01/15 01:41:06;;;;;;;20.98;12.60;;;4.20;99.90;;;;;;4862878;29;20093;-75
2022/01/15 01:48:44;;;;;;;21.27;12.55;;;4.00;99.90;;;;;;4878666;29;20072;-75
2022/01/15 01:51:21;;;;;;;21.73;12.25;;;4.10;99.90;;;;;;4878520;29;20037;-77
2022/01/15 01:53:48;;;;;;;20.38;11.15;;;4.10;99.90;;;;;;4878481;29;20070;-76
2022/01/15 01:56:14;;;;;;;21.67;10.13;;;4.10;99.90;;;;;;4878309;29;20035;-77
2022/01/15 01:58:40;;;;;;;20.55;10.55;;;4.10;99.90;;;;;;4888608;29;20122;-75
2022/01/15 02:01:06;;;;;;;17.20;9.18;;;4.10;99.90;;;;;;4934951;29;20123;-76
2022/01/15 02:03:32;;;;;;;19.27;10.25;;;4.00;99.90;;;;;;4934813;29;20035;-77
2022/01/15 02:05:58;;;;;;;15.52;8.20;;;4.00;99.90;;;;;;4935059;29;20035;-76
2022/01/15 02:08:25;;;;;;;19.48;9.75;;;4.00;99.90;;;;;;4934654;29;20024;-77
2022/01/15 02:10:51;;;;;;;14.40;8.95;;;3.90;99.90;;;;;;4934135;29;20030;-78
2022/01/15 02:13:18;;;;;;;17.63;9.65;;;3.90;99.90;;;;;;4977671;28;20038;-76
2022/01/15 02:15:44;;;;;;;19.58;10.95;;;3.90;99.90;;;;;;4977471;28;20037;-77
2022/01/15 02:18:11;;;;;;;18.55;9.68;;;3.80;99.90;;;;;;4994101;28;20026;-76
2022/01/15 02:26:00;;;;;;;18.27;9.82;;;3.70;99.90;;;;;;4994089;28;20105;-76
2022/01/15 02:28:29;;;;;;;17.08;8.57;;;3.80;99.90;;;;;;4993416;28;20061;-77
2022/01/15 02:31:04;;;;;;;18.08;10.02;;;3.80;99.90;;;;;;4994720;28;20026;-78
2022/01/15 02:33:30;;;;;;;24.20;12.80;;;3.70;99.90;;;;;;4994526;28;20042;-77
2022/01/15 02:35:57;;;;;;;18.38;8.85;;;3.70;99.90;;;;;;4994561;28;20022;-77
2022/01/15 02:38:23;;;;;;;23.38;12.27;;;3.80;99.90;;;;;;4994313;28;20041;-78
2022/01/15 02:40:50;;;;;;;20.15;10.45;;;3.70;99.90;;;;;;4994454;28;20380;-78
2022/01/15 02:43:21;;;;;;;17.70;9.75;;;3.70;99.90;;;;;;4994104;28;20030;-78
2022/01/15 02:45:55;;;;;;;17.85;10.48;;;3.60;99.90;;;;;;4977001;28;20034;-77
2022/01/15 02:48:27;;;;;;;21.25;11.25;;;3.60;99.90;;;;;;4994229;28;20054;-77
2022/01/15 02:50:54;;;;;;;25.95;13.52;;;3.60;99.90;;;;;;4994166;28;20041;-73
2022/01/15 02:53:20;;;;;;;24.23;14.02;;;3.60;99.90;;;;;;4994276;28;20164;-75
2022/01/15 02:55:49;;;;;;;25.13;13.88;;;3.50;99.90;;;;;;4994046;28;20038;-74
2022/01/15 02:58:17;;;;;;;28.20;14.50;;;3.50;99.90;;;;;;4993428;28;20559;-75
2022/01/15 03:00:43;;;;;;;25.38;14.27;;;3.50;99.90;;;;;;4993919;28;20041;-75
2022/01/15 03:03:10;;;;;;;26.92;14.30;;;3.40;99.90;;;;;;4994156;28;20026;-73
2022/01/15 03:05:36;;;;;;;25.95;15.60;;;3.30;99.90;;;;;;4994095;28;20181;-74
2022/01/15 03:08:02;;;;;;;23.85;13.70;;;3.30;99.90;;;;;;4993835;28;20074;-75
2022/01/15 03:10:28;;;;;;;25.88;14.93;;;3.20;99.90;;;;;;4993423;28;20034;-74
2022/01/15 03:12:55;;;;;;;30.20;15.05;;;3.20;99.90;;;;;;4993997;28;20393;-74
2022/01/15 03:15:22;;;;;;;25.85;14.60;;;3.20;99.90;;;;;;4993294;28;20042;-78
2022/01/15 03:17:48;;;;;;;26.33;14.75;;;3.10;99.90;;;;;;4993917;28;20018;-78
2022/01/15 03:20:16;;;;;;;29.38;15.80;;;3.10;99.90;;;;;;4993747;28;20411;-75
2022/01/15 03:22:42;;;;;;;28.60;15.07;;;3.00;99.90;;;;;;4992677;28;20038;-78
2022/01/15 03:25:10;;;;;;;25.50;15.02;;;3.00;99.90;;;;;;4993326;28;20038;-76
2022/01/15 03:27:36;;;;;;;26.02;14.13;;;3.00;99.90;;;;;;4992730;28;20030;-78
2022/01/15 03:30:04;;;;;;;23.02;12.63;;;2.90;99.90;;;;;;4993529;28;20484;-77
2022/01/15 03:32:31;;;;;;;25.33;13.68;;;3.00;99.90;;;;;;4976089;28;20470;-78
2022/01/15 03:34:57;;;;;;;23.70;12.05;;;2.90;99.90;;;;;;4993195;28;20089;-78
2022/01/15 03:37:23;;;;;;;22.50;12.85;;;3.00;99.90;;;;;;4993604;28;20030;-77
2022/01/15 03:39:48;;;;;;;20.67;12.40;;;3.00;99.90;;;;;;4993302;28;20031;-77
2022/01/15 03:42:15;;;;;;;28.52;14.18;;;3.00;99.90;;;;;;4993111;28;20022;-77
2022/01/15 03:44:45;;;;;;;22.70;13.20;;;3.00;99.90;;;;;;4992989;28;20026;-74
2022/01/15 03:47:12;;;;;;;24.17;13.23;;;2.90;99.90;;;;;;4993222;28;20393;-75
2022/01/15 03:49:39;;;;;;;24.88;12.48;;;2.90;99.90;;;;;;4992913;28;20489;-74
2022/01/15 03:52:07;;;;;;;21.80;12.48;;;2.80;99.90;;;;;;4992957;28;20026;-77
2022/01/15 03:54:33;;;;;;;25.30;12.45;;;2.80;99.90;;;;;;4992536;28;20084;-76
2022/01/15 03:57:00;;;;;;;22.17;13.27;;;2.80;99.90;;;;;;4992508;28;20072;-76
2022/01/15 03:59:27;;;;;;;29.95;13.40;;;2.70;99.90;;;;;;4992055;28;20121;-75
2022/01/15 04:01:53;;;;;;;23.67;13.40;;;2.70;99.90;;;;;;4992397;28;20041;-78
2022/01/15 04:04:20;;;;;;;32.97;15.60;;;2.60;99.90;;;;;;4992153;28;20405;-76
2022/01/15 04:06:46;;;;;;;25.25;15.60;;;2.60;99.90;;;;;;4992841;28;20564;-77
2022/01/15 04:09:12;;;;;;;32.55;16.92;;;2.60;99.90;;;;;;4992521;28;20022;-76
2022/01/15 04:11:39;;;;;;;31.00;16.00;;;2.50;99.90;;;;;;4992343;28;20077;-76
2022/01/15 04:14:06;;;;;;;29.13;16.52;;;2.50;99.90;;;;;;4992095;28;20108;-76
2022/01/15 04:16:32;;;;;;;26.98;15.95;;;2.40;99.90;;;;;;4992459;28;20049;-75
2022/01/15 04:18:59;;;;;;;26.00;15.77;;;2.50;99.90;;;;;;4993177;28;20027;-75
2022/01/15 04:21:26;;;;;;;29.58;15.18;;;2.40;99.90;;;;;;4992216;28;20089;-74
2022/01/15 04:23:52;;;;;;;21.25;13.63;;;2.40;99.90;;;;;;4992371;28;20026;-75
2022/01/15 04:26:24;;;;;;;25.20;14.57;;;2.40;99.90;;;;;;4992142;28;20023;-74
2022/01/15 04:28:51;;;;;;;23.80;14.88;;;2.30;99.90;;;;;;4992130;28;20503;-74
2022/01/15 04:31:17;;;;;;;29.80;16.33;;;2.30;99.90;;;;;;4992421;28;20113;-77
2022/01/15 04:33:44;;;;;;;26.50;14.05;;;2.30;99.90;;;;;;4991631;28;20084;-76
2022/01/15 04:36:11;;;;;;;29.40;14.43;;;2.40;99.90;;;;;;4975064;28;20026;-75
2022/01/15 04:38:38;;;;;;;27.45;15.85;;;2.30;99.90;;;;;;4992497;28;20034;-76
2022/01/15 04:41:05;;;;;;;26.40;15.45;;;2.40;99.90;;;;;;4984273;28;20424;-76
2022/01/15 04:43:31;;;;;;;26.73;15.35;;;2.30;99.90;;;;;;4992294;28;20134;-77
2022/01/15 04:45:58;;;;;;;27.65;17.00;;;2.40;99.90;;;;;;4992242;28;20417;-76
2022/01/15 04:48:24;;;;;;;27.95;15.25;;;2.30;99.90;;;;;;4992260;28;20057;-77
2022/01/15 04:50:50;;;;;;;35.53;17.10;;;2.30;99.90;;;;;;4992173;28;20069;-76
2022/01/15 04:53:16;;;;;;;29.13;16.27;;;2.30;99.90;;;;;;4974682;28;20022;-77
2022/01/15 04:55:42;;;;;;;32.25;15.48;;;2.30;99.90;;;;;;4992181;28;20381;-77
2022/01/15 04:58:08;;;;;;;27.65;15.07;;;2.30;99.90;;;;;;4991749;28;20042;-74
2022/01/15 05:00:35;;;;;;;26.52;14.82;;;2.20;99.90;;;;;;4991881;28;20041;-77
2022/01/15 05:03:01;;;;;;;27.75;16.95;;;2.20;99.90;;;;;;4991495;28;20038;-77
2022/01/15 05:05:28;;;;;;;40.05;20.58;;;2.30;99.90;;;;;;4992065;28;20048;-77
2022/01/15 05:07:55;;;;;;;36.05;19.60;;;2.30;99.90;;;;;;4992124;28;20064;-77
2022/01/15 05:10:27;;;;;;;32.03;18.10;;;2.30;99.90;;;;;;4991506;28;20054;-77
2022/01/15 05:12:55;;;;;;;28.30;16.42;;;2.30;99.90;;;;;;4992069;28;20027;-78
2022/01/15 05:15:22;;;;;;;27.80;16.35;;;2.30;99.90;;;;;;4991373;28;20076;-77
2022/01/15 05:17:49;;;;;;;31.27;17.70;;;2.30;99.90;;;;;;4990635;28;20384;-78
2022/01/15 05:20:19;;;;;;;33.33;17.98;;;2.30;99.90;;;;;;4991662;28;20023;-76
2022/01/15 05:22:47;;;;;;;29.23;15.10;;;2.30;99.90;;;;;;4990749;28;20034;-77
2022/01/15 05:25:13;;;;;;;25.05;13.98;;;2.30;99.90;;;;;;4991312;28;20031;-73
2022/01/15 05:27:40;;;;;;;24.35;13.48;;;2.30;99.90;;;;;;4991650;28;20058;-77
2022/01/15 05:30:07;;;;;;;23.52;12.48;;;2.40;99.90;;;;;;4991476;28;20026;-77
2022/01/15 05:32:34;;;;;;;24.85;14.10;;;2.40;99.90;;;;;;4991812;28;20041;-77
2022/01/15 05:35:01;;;;;;;22.45;12.68;;;2.40;99.90;;;;;;4990646;28;20042;-78
2022/01/15 05:37:27;;;;;;;19.15;10.95;;;2.40;99.90;;;;;;4997890;28;20444;-77
2022/01/15 05:39:54;;;;;;;17.80;10.50;;;2.50;99.90;;;;;;4992103;28;20088;-76
2022/01/15 05:42:20;;;;;;;18.40;10.80;;;2.50;99.90;;;;;;4991519;28;20026;-75
2022/01/15 05:44:46;;;;;;;20.67;10.52;;;2.50;99.90;;;;;;4991464;28;20457;-74
2022/01/15 05:47:12;;;;;;;20.60;10.73;;;2.50;99.90;;;;;;4993879;28;20061;-77
2022/01/15 05:49:38;;;;;;;24.02;11.68;;;2.40;99.90;;;;;;4995373;28;20030;-76
2022/01/15 05:52:05;;;;;;;23.75;11.45;;;2.50;99.90;;;;;;4995199;28;20038;-76
2022/01/15 05:54:31;;;;;;;20.15;11.10;;;2.40;99.90;;;;;;4995076;28;20030;-75
2022/01/15 05:56:58;;;;;;;20.05;10.70;;;2.40;99.90;;;;;;4994782;28;20022;-76
2022/01/15 05:59:24;;;;;;;21.13;12.40;;;2.30;99.90;;;;;;4994651;28;20034;-75
2022/01/15 06:01:50;;;;;;;24.50;13.45;;;2.30;99.90;;;;;;4994699;28;20037;-73
2022/01/15 06:04:16;;;;;;;29.90;14.95;;;2.30;99.90;;;;;;4995044;28;20057;-76
2022/01/15 06:06:43;;;;;;;24.52;14.35;;;2.30;99.90;;;;;;4995119;28;20061;-75
2022/01/15 06:09:09;;;;;;;23.13;14.73;;;2.30;99.90;;;;;;4993711;28;20015;-76
2022/01/15 06:11:35;;;;;;;27.15;14.07;;;2.30;99.90;;;;;;4994735;28;20361;-76
2022/01/15 06:14:02;;;;;;;25.60;15.07;;;2.20;99.90;;;;;;4994618;28;20088;-76
2022/01/15 06:16:27;;;;;;;26.15;16.08;;;2.20;99.90;;;;;;4994888;28;20030;-79
2022/01/15 06:18:54;;;;;;;29.17;17.17;;;2.20;99.90;;;;;;4994881;28;20380;-77
2022/01/15 06:21:20;;;;;;;30.92;17.38;;;2.20;99.90;;;;;;4994645;28;20385;-75
2022/01/15 06:23:46;;;;;;;32.53;17.95;;;2.20;99.90;;;;;;4994835;28;20029;-76
2022/01/15 06:26:12;;;;;;;25.10;16.25;;;2.10;99.90;;;;;;4994716;28;20026;-77
2022/01/15 06:28:38;;;;;;;27.70;15.48;;;2.10;99.90;;;;;;4976835;28;20382;-76
2022/01/15 06:31:04;;;;;;;32.15;17.73;;;2.10;99.90;;;;;;4994464;28;20030;-76
2022/01/15 06:33:30;;;;;;;31.48;17.83;;;2.10;99.90;;;;;;4994426;28;20500;-77
2022/01/15 06:35:56;;;;;;;38.15;21.88;;;2.10;99.90;;;;;;4994242;28;20031;-78
2022/01/15 06:38:22;;;;;;;72.22;35.22;;;2.10;99.90;;;;;;4994619;28;20053;-77
2022/01/15 06:40:48;;;;;;;44.13;24.70;;;2.10;99.90;;;;;;4993777;28;20085;-76
2022/01/15 06:43:14;;;;;;;43.50;22.58;;;2.10;99.90;;;;;;4993101;28;20122;-77
2022/01/15 06:45:40;;;;;;;33.75;21.23;;;2.10;99.90;;;;;;4993573;28;20508;-77
2022/01/15 06:48:06;;;;;;;28.98;16.70;;;2.10;99.90;;;;;;4993085;28;20114;-78
2022/01/15 06:50:33;;;;;;;26.40;15.90;;;2.10;99.90;;;;;;4993266;28;20496;-77
2022/01/15 06:52:59;;;;;;;23.88;14.63;;;2.10;99.90;;;;;;4975232;28;20149;-76
2022/01/15 06:55:25;;;;;;;28.00;15.27;;;2.10;99.90;;;;;;4993918;28;20440;-75
2022/01/15 06:57:51;;;;;;;25.38;14.88;;;2.10;99.90;;;;;;4993548;28;20527;-78
2022/01/15 07:00:17;;;;;;;26.15;15.68;;;2.10;99.90;;;;;;4993378;28;20165;-76
2022/01/15 07:02:44;;;;;;;29.88;17.90;;;2.10;99.90;;;;;;4994008;28;20366;-78
2022/01/15 07:05:10;;;;;;;38.25;22.27;;;2.20;99.90;;;;;;4993797;28;20046;-75
2022/01/15 07:07:44;;;;;;;43.20;24.83;;;2.30;99.90;;;;;;4993518;28;20064;-76
2022/01/15 07:10:10;;;;;;;62.13;32.97;;;2.30;99.90;;;;;;4994031;28;20101;-74
2022/01/15 07:12:36;;;;;;;64.40;39.97;;;2.40;99.90;;;;;;4993550;28;20024;-76
2022/01/15 07:15:03;;;;;;;89.32;54.70;;;2.40;99.90;;;;;;4993138;28;20460;-74
2022/01/15 07:17:29;;;;;;;85.25;48.65;;;2.40;99.90;;;;;;4993309;28;20015;-76
2022/01/15 07:19:55;;;;;;;94.57;58.80;;;2.50;99.90;;;;;;4993490;28;20026;-75
2022/01/15 07:22:21;;;;;;;141.05;88.05;;;2.60;99.90;;;;;;4993423;28;20022;-75
2022/01/15 07:24:47;;;;;;;88.97;53.28;;;2.60;99.90;;;;;;4993201;28;20037;-74
2022/01/15 07:27:13;;;;;;;50.50;31.10;;;2.70;99.90;;;;;;4992981;28;20054;-75
2022/01/15 07:29:39;;;;;;;40.25;24.85;;;2.80;99.90;;;;;;4992894;28;20038;-73
2022/01/15 07:32:05;;;;;;;34.55;21.55;;;2.80;99.90;;;;;;4994228;28;20030;-75
2022/01/15 07:34:33;;;;;;;34.10;20.92;;;2.80;99.90;;;;;;4993140;28;20042;-76
2022/01/15 07:36:59;;;;;;;32.85;20.70;;;2.90;99.90;;;;;;4992746;28;20026;-74
2022/01/15 07:39:26;;;;;;;32.40;19.92;;;2.90;99.90;;;;;;4992731;28;20046;-74
2022/01/15 07:41:55;;;;;;;37.53;23.10;;;3.00;99.90;;;;;;4992964;28;20023;-74
2022/01/15 07:44:22;;;;;;;39.72;24.05;;;3.00;99.90;;;;;;4992558;28;20026;-75
2022/01/15 07:46:49;;;;;;;39.35;26.67;;;3.10;99.90;;;;;;4992893;28;20121;-75
2022/01/15 07:49:15;;;;;;;41.83;24.48;;;3.20;99.90;;;;;;4992728;28;20065;-74
2022/01/15 07:51:41;;;;;;;39.88;23.75;;;3.20;99.90;;;;;;4992228;28;20049;-74
2022/01/15 07:54:06;;;;;;;52.67;26.13;;;3.30;99.90;;;;;;4992265;28;20041;-76
2022/01/15 07:56:33;;;;;;;47.97;26.48;;;3.30;99.90;;;;;;4992469;28;20030;-74
2022/01/15 07:58:59;;;;;;;38.20;21.88;;;3.30;99.90;;;;;;4990355;28;20058;-74
2022/01/15 08:01:25;;;;;;;33.88;20.50;;;3.40;99.90;;;;;;4992274;28;20030;-77
2022/01/15 08:03:50;;;;;;;34.63;21.33;;;3.40;99.90;;;;;;4992455;28;20031;-76
2022/01/15 08:06:19;;;;;;;34.13;19.83;;;3.50;99.90;;;;;;4990610;28;20023;-77
2022/01/15 08:08:45;;;;;;;34.40;19.55;;;3.50;99.90;;;;;;4973991;28;20105;-76
2022/01/15 08:11:11;;;;;;;33.17;17.30;;;3.50;99.90;;;;;;4991823;28;20105;-76
2022/01/15 08:13:36;;;;;;;32.08;19.63;;;3.60;99.90;;;;;;4991151;28;20099;-72
2022/01/15 08:16:04;;;;;;;34.00;20.20;;;3.60;99.90;;;;;;4991134;28;20049;-74
2022/01/15 08:18:32;;;;;;;39.40;21.20;;;3.70;99.90;;;;;;4991429;28;20049;-75
2022/01/15 08:20:58;;;;;;;39.30;20.85;;;3.80;99.90;;;;;;4991489;28;20026;-72
2022/01/15 08:23:24;;;;;;;31.48;19.13;;;3.90;99.90;;;;;;4991050;28;20259;-75
2022/01/15 08:25:50;;;;;;;38.03;21.42;;;3.90;99.90;;;;;;4974169;28;20045;-77
2022/01/15 08:28:17;;;;;;;34.47;20.67;;;4.00;99.90;;;;;;4991623;28;20027;-77
2022/01/15 08:30:44;;;;;;;36.92;20.17;;;4.10;99.90;;;;;;4990541;28;20034;-74
2022/01/15 08:33:10;;;;;;;31.33;19.35;;;4.20;99.90;;;;;;4990000;28;20045;-73
2022/01/15 08:35:37;;;;;;;33.05;19.13;;;4.20;99.90;;;;;;4991242;28;20117;-73
2022/01/15 08:38:03;;;;;;;31.40;17.63;;;4.20;99.90;;;;;;4991133;28;20084;-73
2022/01/15 08:40:32;;;;;;;33.05;20.00;;;4.20;99.90;;;;;;4991155;28;20018;-74
2022/01/15 08:42:59;;;;;;;33.25;19.73;;;4.20;99.90;;;;;;4990769;28;20497;-73
2022/01/15 08:45:26;;;;;;;27.13;17.38;;;4.40;99.90;;;;;;4990162;28;20109;-72
2022/01/15 08:47:54;;;;;;;32.35;20.35;;;4.30;99.90;;;;;;4990943;28;20022;-72
2022/01/15 08:50:21;;;;;;;29.15;18.67;;;4.40;99.90;;;;;;4989598;28;20014;-71
2022/01/15 08:52:47;;;;;;;35.85;21.70;;;4.50;99.90;;;;;;4990655;28;20023;-73
2022/01/15 08:55:15;;;;;;;33.70;19.73;;;4.50;99.90;;;;;;4990108;28;20030;-71
2022/01/15 08:57:42;;;;;;;39.15;21.63;;;4.50;99.90;;;;;;4990165;28;20393;-71
2022/01/15 09:00:11;;;;;;;36.97;19.65;;;4.60;99.90;;;;;;4990769;28;20065;-72
2022/01/15 09:02:37;;;;;;;31.40;20.00;;;4.60;99.90;;;;;;4991055;28;20034;-71
2022/01/15 09:05:07;;;;;;;33.85;20.20;;;4.50;99.90;;;;;;4991501;28;20661;-73
2022/01/15 09:07:34;;;;;;;32.03;19.05;;;4.70;99.90;;;;;;4988885;28;20053;-73
2022/01/15 09:10:00;;;;;;;35.28;19.63;;;4.80;99.90;;;;;;4990808;28;20026;-72
2022/01/15 09:12:26;;;;;;;35.83;21.45;;;4.80;99.90;;;;;;4990595;28;20469;-72
2022/01/15 09:14:54;;;;;;;37.97;22.42;;;4.80;99.90;;;;;;4990678;28;20037;-71
2022/01/15 09:17:21;;;;;;;30.20;17.70;;;4.80;99.90;;;;;;4991006;28;20031;-71
2022/01/15 09:19:47;;;;;;;37.35;20.88;;;4.90;99.90;;;;;;4991839;28;20037;-73
2022/01/15 09:22:13;;;;;;;34.33;20.45;;;5.00;99.90;;;;;;4995450;28;20034;-72
2022/01/15 09:24:39;;;;;;;40.45;21.83;;;5.10;99.90;;;;;;4995238;28;20037;-73
2022/01/15 09:32:36;;;;;;;29.35;16.65;;;5.20;99.90;;;;;;4994145;28;20357;-72
2022/01/15 09:35:03;;;;;;;31.17;17.67;;;5.20;99.90;;;;;;4993851;28;20488;-72
2022/01/15 09:37:30;;;;;;;27.05;16.17;;;5.30;99.90;;;;;;4994408;28;20022;-72
2022/01/15 09:39:57;;;;;;;31.35;18.58;;;5.40;99.90;;;;;;4995210;28;20548;-72
2022/01/15 09:42:24;;;;;;;27.98;17.00;;;5.50;99.90;;;;;;4994698;28;20070;-72
2022/01/15 09:44:52;;;;;;;27.00;16.55;;;5.50;99.90;;;;;;4995188;28;20543;-73
2022/01/15 09:47:20;;;;;;;24.52;14.10;;;5.50;99.90;;;;;;4995110;28;20030;-74
2022/01/15 09:49:46;;;;;;;26.67;15.50;;;5.40;99.90;;;;;;4994488;28;20026;-74
2022/01/15 09:52:12;;;;;;;26.92;13.88;;;5.40;99.90;;;;;;4994619;28;20087;-73
2022/01/15 09:54:41;;;;;;;24.17;15.63;;;5.40;99.90;;;;;;4994967;28;20030;-72
2022/01/15 09:57:09;;;;;;;22.70;14.63;;;5.40;99.90;;;;;;4995821;28;20134;-73
2022/01/15 09:59:36;;;;;;;26.45;16.17;;;5.50;99.90;;;;;;5013879;28;20026;-72
2022/01/15 10:02:04;;;;;;;26.40;14.82;;;5.70;99.90;;;;;;5013471;28;20499;-73
2022/01/15 10:04:32;;;;;;;28.77;18.00;;;5.60;99.90;;;;;;5014293;28;20065;-73
2022/01/15 10:07:27;;;;;;;29.05;16.50;;;5.80;99.90;;;;;;5014324;28;20022;-72
2022/01/15 10:09:54;;;;;;;26.25;16.45;;;5.90;99.90;;;;;;4996824;28;20030;-73
2022/01/15 10:12:31;;;;;;;23.88;14.40;;;6.10;99.90;;;;;;5013017;28;20022;-74
2022/01/15 10:15:02;;;;;;;27.08;17.20;;;6.10;99.90;;;;;;5013990;28;20041;-74
2022/01/15 10:17:33;;;;;;;27.30;16.83;;;6.00;99.90;;;;;;5014077;28;20495;-73
2022/01/15 10:20:01;;;;;;;23.05;14.75;;;6.10;99.90;;;;;;5014136;28;20451;-71
2022/01/15 10:22:29;;;;;;;24.10;14.52;;;6.00;99.90;;;;;;5013821;28;20014;-73
2022/01/15 10:25:07;;;;;;;25.85;14.25;;;6.10;99.90;;;;;;5013974;28;20112;-73
2022/01/15 10:27:35;;;;;;;22.95;12.40;;;6.00;99.90;;;;;;5013912;28;20113;-72
2022/01/15 10:30:11;;;;;;;25.27;13.65;;;6.00;99.90;;;;;;5013775;28;20022;-73
2022/01/15 10:32:39;;;;;;;26.42;15.32;;;6.10;99.90;;;;;;5012803;28;20045;-73
2022/01/15 10:35:16;;;;;;;20.70;12.20;;;6.20;99.90;;;;;;5013705;28;20034;-73
2022/01/15 10:37:56;;;;;;;26.08;14.30;;;6.20;99.90;;;;;;5013887;28;20030;-73
2022/01/15 10:40:27;;;;;;;24.58;12.73;;;6.20;99.90;;;;;;5013329;28;20428;-72
2022/01/15 10:42:57;;;;;;;22.90;12.93;;;6.00;99.90;;;;;;5012201;28;20030;-73
2022/01/15 10:45:26;;;;;;;23.95;11.32;;;6.10;99.90;;;;;;4973850;28;20031;-72
2022/01/15 10:47:55;;;;;;;21.63;12.45;;;6.20;99.90;;;;;;4974566;28;20022;-73
2022/01/15 10:50:35;;;;;;;23.17;13.02;;;6.30;99.90;;;;;;4974629;28;20053;-73
2022/01/15 10:53:10;;;;;;;22.35;12.88;;;6.20;99.90;;;;;;4974302;28;20038;-73
2022/01/15 10:55:37;;;;;;;26.63;13.10;;;6.40;99.90;;;;;;4974632;28;20058;-73
2022/01/15 10:58:11;;;;;;;26.38;13.35;;;6.40;99.90;;;;;;4973995;28;20046;-73
2022/01/15 11:00:41;;;;;;;21.75;11.70;;;6.40;99.90;;;;;;4974114;28;20049;-73
2022/01/15 11:03:10;;;;;;;20.48;10.80;;;6.20;99.90;;;;;;4974298;28;20027;-73
2022/01/15 11:05:38;;;;;;;18.15;11.52;;;6.50;99.90;;;;;;4974287;28;20029;-73
2022/01/15 11:08:16;;;;;;;22.13;13.00;;;6.60;99.90;;;;;;4974232;28;20473;-73
2022/01/15 11:10:48;;;;;;;20.88;11.63;;;6.60;99.90;;;;;;4973676;28;20023;-73
2022/01/15 11:13:16;;;;;;;22.90;11.52;;;6.80;99.90;;;;;;4973532;28;20034;-74
2022/01/15 11:15:45;;;;;;;28.30;14.57;;;6.80;99.90;;;;;;4973833;28;20676;-72
2022/01/15 11:18:21;;;;;;;21.27;12.63;;;6.80;99.90;;;;;;4972945;28;20404;-73
2022/01/15 11:20:50;;;;;;;26.63;15.60;;;6.60;99.90;;;;;;4973634;28;20042;-73
2022/01/15 11:23:19;;;;;;;25.48;15.82;;;6.50;99.90;;;;;;4973056;28;20031;-73
2022/01/15 11:25:45;;;;;;;24.42;15.43;;;6.50;99.90;;;;;;4973905;28;20393;-74
2022/01/15 11:28:13;;;;;;;24.23;14.25;;;6.30;99.90;;;;;;4973276;28;20037;-73
2022/01/15 11:30:41;;;;;;;20.52;12.63;;;6.10;99.90;;;;;;4972829;28;20393;-74
2022/01/15 11:33:08;;;;;;;26.27;14.95;;;6.20;99.90;;;;;;4955836;28;20573;-73
2022/01/15 11:35:46;;;;;;;25.48;13.50;;;6.20;99.90;;;;;;4976925;28;20039;-73
2022/01/15 11:38:43;;;;;;;23.63;13.70;;;6.20;99.90;;;;;;4992622;28;20038;-72
2022/01/15 11:41:27;;;;;;;26.92;14.55;;;6.40;99.90;;;;;;4993194;28;20054;-72
2022/01/15 11:43:54;;;;;;;21.48;12.38;;;6.40;99.90;;;;;;4974668;28;20210;-72
2022/01/15 11:46:28;;;;;;;19.65;13.05;;;6.30;99.90;;;;;;4992933;28;20026;-71
2022/01/15 11:49:28;;;;;;;28.52;15.32;;;6.30;99.90;;;;;;4993158;28;20065;-72
2022/01/15 11:52:06;;;;;;;26.42;13.82;;;6.50;99.90;;;;;;4992748;28;20492;-73
2022/01/15 11:54:36;;;;;;;19.45;12.25;;;6.50;99.90;;;;;;4992547;28;20042;-72
2022/01/15 11:57:04;;;;;;;19.27;11.40;;;6.40;99.90;;;;;;4992380;28;20111;-73
2022/01/15 11:59:33;;;;;;;22.73;12.82;;;6.50;99.90;;;;;;4991453;28;20038;-73
2022/01/15 12:02:06;;;;;;;22.27;12.25;;;6.60;99.90;;;;;;4992562;28;20030;-72
2022/01/15 12:04:36;;;;;;;36.85;22.08;;;6.60;99.90;;;;;;4992868;28;20033;-73
2022/01/15 12:07:05;;;;;;;26.85;14.27;;;6.70;99.90;;;;;;4992561;28;20057;-73
2022/01/15 12:09:34;;;;;;;36.97;21.80;;;6.80;99.90;;;;;;4974590;28;20018;-73
2022/01/15 12:12:01;;;;;;;40.13;21.27;;;6.70;99.90;;;;;;4992592;28;20068;-73
2022/01/15 12:14:50;;;;;;;29.90;18.08;;;6.60;99.90;;;;;;4992422;28;20042;-73
2022/01/15 12:17:37;;;;;;;20.52;12.32;;;6.70;99.90;;;;;;4992347;28;20058;-72
2022/01/15 12:20:06;;;;;;;26.50;13.57;;;6.70;99.90;;;;;;4992586;28;20026;-72
2022/01/15 12:22:53;;;;;;;31.08;17.80;;;6.70;99.90;;;;;;4992125;28;20077;-72
2022/01/15 12:25:25;;;;;;;16.83;9.55;;;6.70;99.90;;;;;;4975004;28;20054;-72
2022/01/15 12:28:13;;;;;;;29.13;15.73;;;6.60;99.90;;;;;;4992388;28;20023;-72
2022/01/15 12:30:42;;;;;;;20.67;12.20;;;6.70;99.90;;;;;;4991610;28;20477;-72
2022/01/15 12:33:13;;;;;;;24.75;12.30;;;6.80;99.90;;;;;;4991941;28;20026;-72
2022/01/15 12:35:50;;;;;;;20.27;11.18;;;6.70;99.90;;;;;;4991934;28;20034;-72
2022/01/15 12:38:25;;;;;;;19.60;9.98;;;6.60;99.90;;;;;;4991418;28;20109;-73
2022/01/15 12:41:04;;;;;;;24.25;11.70;;;6.60;99.90;;;;;;4991766;28;20030;-72
2022/01/15 12:43:41;;;;;;;29.75;12.07;;;6.60;99.90;;;;;;4992309;28;20030;-72
2022/01/15 12:46:11;;;;;;;36.70;15.50;;;6.60;99.90;;;;;;4992040;28;20046;-72
2022/01/15 12:48:43;;;;;;;19.73;9.93;;;6.60;99.90;;;;;;4991904;28;20367;-73
2022/01/15 12:51:11;;;;;;;24.67;11.63;;;6.60;99.90;;;;;;4992053;28;20026;-72
2022/01/15 12:53:41;;;;;;;35.85;17.25;;;6.50;99.90;;;;;;4974503;28;20026;-72
2022/01/15 12:56:09;;;;;;;38.03;19.42;;;6.60;99.90;;;;;;4994503;28;20034;-72
2022/01/15 12:58:35;;;;;;;29.50;14.15;;;6.50;99.90;;;;;;4995493;28;20097;-72
2022/01/15 13:01:04;;;;;;;23.67;11.68;;;6.60;99.90;;;;;;4995233;28;20477;-72
2022/01/15 13:03:31;;;;;;;17.65;9.38;;;6.50;99.90;;;;;;4995624;28;20041;-73
2022/01/15 13:06:01;;;;;;;17.67;9.13;;;6.50;99.90;;;;;;4978591;28;20499;-72
2022/01/15 13:08:44;;;;;;;28.42;13.38;;;6.50;99.90;;;;;;4995807;28;20029;-72
2022/01/15 13:13:47;;;;;;;21.85;11.27;;;6.50;99.90;;;;;;4994387;28;20030;-72
2022/01/15 13:16:30;;;;;;;47.83;22.30;;;6.50;99.90;;;;;;4962009;28;20038;-73
2022/01/15 13:19:02;;;;;;;45.72;21.25;;;6.50;99.90;;;;;;4995739;28;20037;-73